Ana Sayfa
METAR-TAF:

METAR-TAF

Havaalanları :

Harrisburg / Middletown, Pensilvanya, Amerika Birleşik Devletleri

Enlem: 40-11-37N, Boylam: 076-45-48W, yükseklik: 95 m

Güncel hava durumu gözlemi

Rapor saat 20:56 UTC de 18 dakika önce yapıldı.
Rüzgar güneydan 8 kt
Sıcaklık 14°C
Nem 17%
Basınç 1019 hPa
Görüş mesafesi: 16.1 km
Açık gökyüzü

METAR: KMDT 232056Z 18008KT 10SM CLR 14/M11 A3008 RMK AO2 SLP188 T01391111 56024 $

Saat: 16:14 (21:14 UTC)

Tahmin

Rapor saat 17:37 UTC de 3 saat ve 37 dakika önce yapıldı.
Ayın 23'si saat 18 UTC'den ayın 24'si saat 18 UTC'ye kadar geçerli Tahmin
Rüzgar güney/güneydoğudan 4 kt
Görüş mesafesi: 10 km
Açık gökyüzü
Ayın 23'si saat 2100 UTC'den
Rüzgar güney/güneybatıdan 5 kt
Görüş mesafesi: 10 km
Açık gökyüzü

TAF: KMDT 231737Z 2318/2418 15004KT P6SM SKC FM232100 20005KT P6SM SKC

4.000'den fazla havaalanı için hava durumu gözlemleri ve tahminleri (METAR ve TAF raporları).

Kullanılabilir istasyonlar harita üzerinde sarı ve kırmızı noktalarla gösterilir.

İstasyonun adını görmek için fareyi noktanın üzerinde gezdirin.

Sonrasında hava gözlem ve tahminlerini görmek için tıklayın.

Haritayı değiştirmek için: yaklaştırmak için siyah artı işaretli yeşil düğmeye ve uzaklaştırmak için de eksi işaretli düğmeye hızla tıklayın; bitişik haritalar için yeşil okları kullanın.


METAR-TAF: